sensor_id;sensor_type;location;lat;lon;timestamp;temperature;humidity
20777;DHT22;10548;47.504;8.248;2023-09-18T00:01:01;19.80;99.90
20777;DHT22;10548;47.504;8.248;2023-09-18T00:03:28;19.70;99.90
20777;DHT22;10548;47.504;8.248;2023-09-18T00:05:55;19.70;99.90
20777;DHT22;10548;47.504;8.248;2023-09-18T00:08:22;19.60;99.90
20777;DHT22;10548;47.504;8.248;2023-09-18T00:10:52;19.40;99.90
20777;DHT22;10548;47.504;8.248;2023-09-18T00:13:21;19.30;99.90
20777;DHT22;10548;47.504;8.248;2023-09-18T00:15:48;19.10;99.90
20777;DHT22;10548;47.504;8.248;2023-09-18T00:18:16;18.90;99.90
20777;DHT22;10548;47.504;8.248;2023-09-18T00:20:44;18.90;99.90
20777;DHT22;10548;47.504;8.248;2023-09-18T00:23:12;18.90;99.90
20777;DHT22;10548;47.504;8.248;2023-09-18T00:25:39;18.90;99.90
20777;DHT22;10548;47.504;8.248;2023-09-18T00:28:09;18.90;99.90
20777;DHT22;10548;47.504;8.248;2023-09-18T00:30:38;18.80;99.90
20777;DHT22;10548;47.504;8.248;2023-09-18T00:33:09;18.90;99.90
20777;DHT22;10548;47.504;8.248;2023-09-18T00:35:36;18.90;99.90
20777;DHT22;10548;47.504;8.248;2023-09-18T00:38:03;18.80;99.90
20777;DHT22;10548;47.504;8.248;2023-09-18T00:40:30;18.80;99.90
20777;DHT22;10548;47.504;8.248;2023-09-18T00:42:58;18.60;99.90
20777;DHT22;10548;47.504;8.248;2023-09-18T00:45:25;18.60;99.90
20777;DHT22;10548;47.504;8.248;2023-09-18T00:47:52;18.70;99.90
20777;DHT22;10548;47.504;8.248;2023-09-18T00:50:21;18.80;99.90
20777;DHT22;10548;47.504;8.248;2023-09-18T00:52:49;18.70;99.90
20777;DHT22;10548;47.504;8.248;2023-09-18T00:55:16;18.50;99.90
20777;DHT22;10548;47.504;8.248;2023-09-18T00:57:45;18.60;99.90
20777;DHT22;10548;47.504;8.248;2023-09-18T01:00:12;18.70;99.90
20777;DHT22;10548;47.504;8.248;2023-09-18T01:02:44;18.80;99.90
20777;DHT22;10548;47.504;8.248;2023-09-18T01:05:12;18.70;99.90
20777;DHT22;10548;47.504;8.248;2023-09-18T01:07:40;18.80;99.90
20777;DHT22;10548;47.504;8.248;2023-09-18T01:10:08;18.60;99.90
20777;DHT22;10548;47.504;8.248;2023-09-18T01:13:09;18.60;99.90
20777;DHT22;10548;47.504;8.248;2023-09-18T01:16:47;18.50;99.90
20777;DHT22;10548;47.504;8.248;2023-09-18T01:19:55;18.70;99.90
20777;DHT22;10548;47.504;8.248;2023-09-18T01:22:21;18.70;99.90
20777;DHT22;10548;47.504;8.248;2023-09-18T01:24:49;18.90;99.90
20777;DHT22;10548;47.504;8.248;2023-09-18T01:27:18;19.00;99.90
20777;DHT22;10548;47.504;8.248;2023-09-18T01:29:45;19.10;99.90
20777;DHT22;10548;47.504;8.248;2023-09-18T01:32:13;19.00;99.90
20777;DHT22;10548;47.504;8.248;2023-09-18T01:34:46;19.00;99.90
20777;DHT22;10548;47.504;8.248;2023-09-18T01:37:17;19.00;99.90
20777;DHT22;10548;47.504;8.248;2023-09-18T01:39:49;19.00;99.90
20777;DHT22;10548;47.504;8.248;2023-09-18T01:42:17;18.90;99.90
20777;DHT22;10548;47.504;8.248;2023-09-18T01:44:46;18.90;99.90
20777;DHT22;10548;47.504;8.248;2023-09-18T01:47:18;18.90;99.90
20777;DHT22;10548;47.504;8.248;2023-09-18T01:49:47;18.80;99.90
20777;DHT22;10548;47.504;8.248;2023-09-18T01:52:14;18.80;99.90
20777;DHT22;10548;47.504;8.248;2023-09-18T01:54:41;18.80;99.90
20777;DHT22;10548;47.504;8.248;2023-09-18T01:57:08;18.70;99.90
20777;DHT22;10548;47.504;8.248;2023-09-18T01:59:36;18.60;99.90
20777;DHT22;10548;47.504;8.248;2023-09-18T02:02:05;18.70;99.90
20777;DHT22;10548;47.504;8.248;2023-09-18T02:04:35;18.70;99.90
20777;DHT22;10548;47.504;8.248;2023-09-18T02:07:24;18.60;99.90
20777;DHT22;10548;47.504;8.248;2023-09-18T02:09:52;18.60;99.90
20777;DHT22;10548;47.504;8.248;2023-09-18T02:12:19;18.70;99.90
20777;DHT22;10548;47.504;8.248;2023-09-18T02:14:47;18.80;99.90
20777;DHT22;10548;47.504;8.248;2023-09-18T02:17:15;18.70;99.90
20777;DHT22;10548;47.504;8.248;2023-09-18T02:19:42;18.70;99.90
20777;DHT22;10548;47.504;8.248;2023-09-18T02:22:10;18.70;99.90
20777;DHT22;10548;47.504;8.248;2023-09-18T02:24:37;18.70;99.90
20777;DHT22;10548;47.504;8.248;2023-09-18T02:27:05;18.60;99.90
20777;DHT22;10548;47.504;8.248;2023-09-18T02:29:32;18.40;99.90
20777;DHT22;10548;47.504;8.248;2023-09-18T02:31:59;18.50;99.90
20777;DHT22;10548;47.504;8.248;2023-09-18T02:34:27;18.50;99.90
20777;DHT22;10548;47.504;8.248;2023-09-18T02:36:54;18.40;99.90
20777;DHT22;10548;47.504;8.248;2023-09-18T02:39:21;18.40;99.90
20777;DHT22;10548;47.504;8.248;2023-09-18T02:41:50;18.40;99.90
20777;DHT22;10548;47.504;8.248;2023-09-18T02:44:17;19.40;99.90
20777;DHT22;10548;47.504;8.248;2023-09-18T02:46:44;20.00;99.90
20777;DHT22;10548;47.504;8.248;2023-09-18T02:59:02;20.20;99.90
20777;DHT22;10548;47.504;8.248;2023-09-18T03:01:29;20.00;99.90
20777;DHT22;10548;47.504;8.248;2023-09-18T03:03:56;19.80;99.90
20777;DHT22;10548;47.504;8.248;2023-09-18T03:06:24;19.70;99.90
20777;DHT22;10548;47.504;8.248;2023-09-18T03:08:51;19.60;99.90
20777;DHT22;10548;47.504;8.248;2023-09-18T03:11:19;19.60;99.90
20777;DHT22;10548;47.504;8.248;2023-09-18T03:13:46;19.40;99.90
20777;DHT22;10548;47.504;8.248;2023-09-18T03:16:16;19.30;99.90
20777;DHT22;10548;47.504;8.248;2023-09-18T03:18:45;19.30;99.90
20777;DHT22;10548;47.504;8.248;2023-09-18T03:21:12;19.10;99.90
20777;DHT22;10548;47.504;8.248;2023-09-18T03:23:40;19.10;99.90
20777;DHT22;10548;47.504;8.248;2023-09-18T03:26:07;19.10;99.90
20777;DHT22;10548;47.504;8.248;2023-09-18T03:28:34;19.10;99.90
20777;DHT22;10548;47.504;8.248;2023-09-18T03:31:01;19.00;99.90
20777;DHT22;10548;47.504;8.248;2023-09-18T03:33:28;19.00;99.90
20777;DHT22;10548;47.504;8.248;2023-09-18T03:35:55;19.00;99.90
20777;DHT22;10548;47.504;8.248;2023-09-18T03:38:27;19.00;99.90
20777;DHT22;10548;47.504;8.248;2023-09-18T03:40:54;18.90;99.90
20777;DHT22;10548;47.504;8.248;2023-09-18T03:43:21;18.90;99.90
20777;DHT22;10548;47.504;8.248;2023-09-18T03:45:49;18.90;99.90
20777;DHT22;10548;47.504;8.248;2023-09-18T03:48:17;18.80;99.90
20777;DHT22;10548;47.504;8.248;2023-09-18T03:50:44;18.80;99.90
20777;DHT22;10548;47.504;8.248;2023-09-18T03:53:12;18.90;99.90
20777;DHT22;10548;47.504;8.248;2023-09-18T03:55:39;18.90;99.90
20777;DHT22;10548;47.504;8.248;2023-09-18T03:58:06;18.90;99.90
20777;DHT22;10548;47.504;8.248;2023-09-18T04:00:33;18.80;99.90
20777;DHT22;10548;47.504;8.248;2023-09-18T04:03:00;18.60;99.90
20777;DHT22;10548;47.504;8.248;2023-09-18T04:05:27;18.60;99.90
20777;DHT22;10548;47.504;8.248;2023-09-18T04:07:56;18.50;99.90
20777;DHT22;10548;47.504;8.248;2023-09-18T04:10:23;18.50;99.90
20777;DHT22;10548;47.504;8.248;2023-09-18T04:12:51;18.50;99.90
20777;DHT22;10548;47.504;8.248;2023-09-18T04:15:19;18.40;99.90
20777;DHT22;10548;47.504;8.248;2023-09-18T04:17:47;18.40;99.90
20777;DHT22;10548;47.504;8.248;2023-09-18T04:20:15;18.40;99.90
20777;DHT22;10548;47.504;8.248;2023-09-18T04:22:46;18.30;99.90
20777;DHT22;10548;47.504;8.248;2023-09-18T04:25:17;18.30;99.90
20777;DHT22;10548;47.504;8.248;2023-09-18T04:27:47;18.30;99.90
20777;DHT22;10548;47.504;8.248;2023-09-18T04:30:17;18.30;99.90
20777;DHT22;10548;47.504;8.248;2023-09-18T04:32:47;18.30;99.90
20777;DHT22;10548;47.504;8.248;2023-09-18T04:35:15;18.30;99.90
20777;DHT22;10548;47.504;8.248;2023-09-18T04:37:42;18.40;99.90
20777;DHT22;10548;47.504;8.248;2023-09-18T04:40:10;18.50;99.90
20777;DHT22;10548;47.504;8.248;2023-09-18T04:42:39;18.60;99.90
20777;DHT22;10548;47.504;8.248;2023-09-18T04:45:10;18.60;99.90
20777;DHT22;10548;47.504;8.248;2023-09-18T04:47:37;18.50;99.90
20777;DHT22;10548;47.504;8.248;2023-09-18T04:50:05;18.50;99.90
20777;DHT22;10548;47.504;8.248;2023-09-18T04:52:38;18.50;99.90
20777;DHT22;10548;47.504;8.248;2023-09-18T04:55:06;18.50;99.90
20777;DHT22;10548;47.504;8.248;2023-09-18T04:57:33;18.50;99.90
20777;DHT22;10548;47.504;8.248;2023-09-18T05:00:02;18.50;99.90
20777;DHT22;10548;47.504;8.248;2023-09-18T05:02:43;18.50;99.90
20777;DHT22;10548;47.504;8.248;2023-09-18T05:05:11;18.40;99.90
20777;DHT22;10548;47.504;8.248;2023-09-18T05:07:39;18.50;99.90
20777;DHT22;10548;47.504;8.248;2023-09-18T05:10:07;18.50;99.90
20777;DHT22;10548;47.504;8.248;2023-09-18T05:12:34;18.50;99.90
20777;DHT22;10548;47.504;8.248;2023-09-18T05:15:01;18.50;99.90
20777;DHT22;10548;47.504;8.248;2023-09-18T05:17:45;18.50;99.90
20777;DHT22;10548;47.504;8.248;2023-09-18T05:20:21;18.60;99.90
20777;DHT22;10548;47.504;8.248;2023-09-18T05:22:52;18.60;99.90
20777;DHT22;10548;47.504;8.248;2023-09-18T05:25:27;18.70;99.90
20777;DHT22;10548;47.504;8.248;2023-09-18T05:28:01;18.80;99.90
20777;DHT22;10548;47.504;8.248;2023-09-18T05:30:30;18.70;99.90
20777;DHT22;10548;47.504;8.248;2023-09-18T05:33:02;18.70;99.90
20777;DHT22;10548;47.504;8.248;2023-09-18T05:35:42;18.60;99.90
20777;DHT22;10548;47.504;8.248;2023-09-18T05:38:11;18.60;99.90
20777;DHT22;10548;47.504;8.248;2023-09-18T05:40:41;18.60;99.90
20777;DHT22;10548;47.504;8.248;2023-09-18T05:43:08;18.50;99.90
20777;DHT22;10548;47.504;8.248;2023-09-18T05:45:35;18.50;99.90
20777;DHT22;10548;47.504;8.248;2023-09-18T05:48:03;18.40;99.90
20777;DHT22;10548;47.504;8.248;2023-09-18T05:50:35;18.50;99.90
20777;DHT22;10548;47.504;8.248;2023-09-18T05:53:05;18.60;99.90
20777;DHT22;10548;47.504;8.248;2023-09-18T05:55:33;18.60;99.90
20777;DHT22;10548;47.504;8.248;2023-09-18T05:58:01;18.60;99.90
20777;DHT22;10548;47.504;8.248;2023-09-18T06:00:30;18.60;99.90
20777;DHT22;10548;47.504;8.248;2023-09-18T06:02:59;18.60;99.90
20777;DHT22;10548;47.504;8.248;2023-09-18T06:05:26;18.60;99.90
20777;DHT22;10548;47.504;8.248;2023-09-18T06:07:54;18.60;99.90
20777;DHT22;10548;47.504;8.248;2023-09-18T06:10:21;18.60;99.90
20777;DHT22;10548;47.504;8.248;2023-09-18T06:12:48;18.60;99.90
20777;DHT22;10548;47.504;8.248;2023-09-18T06:15:15;18.60;99.90
20777;DHT22;10548;47.504;8.248;2023-09-18T06:17:43;18.60;99.90
20777;DHT22;10548;47.504;8.248;2023-09-18T06:20:11;18.60;99.90
20777;DHT22;10548;47.504;8.248;2023-09-18T06:22:44;18.60;99.90
20777;DHT22;10548;47.504;8.248;2023-09-18T06:25:11;18.60;99.90
20777;DHT22;10548;47.504;8.248;2023-09-18T06:27:38;18.50;99.90
20777;DHT22;10548;47.504;8.248;2023-09-18T06:30:06;18.40;99.90
20777;DHT22;10548;47.504;8.248;2023-09-18T06:32:33;18.30;99.90
20777;DHT22;10548;47.504;8.248;2023-09-18T06:35:01;18.50;99.90
20777;DHT22;10548;47.504;8.248;2023-09-18T06:37:28;18.40;99.90
20777;DHT22;10548;47.504;8.248;2023-09-18T06:39:55;18.30;99.90
20777;DHT22;10548;47.504;8.248;2023-09-18T06:42:23;18.30;99.90
20777;DHT22;10548;47.504;8.248;2023-09-18T06:44:56;18.30;99.90
20777;DHT22;10548;47.504;8.248;2023-09-18T06:47:24;18.30;99.90
20777;DHT22;10548;47.504;8.248;2023-09-18T06:49:51;18.20;99.90
20777;DHT22;10548;47.504;8.248;2023-09-18T06:52:18;18.00;99.90
20777;DHT22;10548;47.504;8.248;2023-09-18T06:54:45;18.00;99.90
20777;DHT22;10548;47.504;8.248;2023-09-18T06:57:13;18.00;99.90
20777;DHT22;10548;47.504;8.248;2023-09-18T06:59:40;18.10;99.90
20777;DHT22;10548;47.504;8.248;2023-09-18T07:02:07;18.10;99.90
20777;DHT22;10548;47.504;8.248;2023-09-18T07:04:34;18.00;99.90
20777;DHT22;10548;47.504;8.248;2023-09-18T07:07:01;18.00;99.90
20777;DHT22;10548;47.504;8.248;2023-09-18T07:09:28;18.10;99.90
20777;DHT22;10548;47.504;8.248;2023-09-18T07:11:55;18.10;99.90
20777;DHT22;10548;47.504;8.248;2023-09-18T07:14:23;18.00;99.90
20777;DHT22;10548;47.504;8.248;2023-09-18T07:16:50;18.00;99.90
20777;DHT22;10548;47.504;8.248;2023-09-18T07:19:17;17.90;99.90
20777;DHT22;10548;47.504;8.248;2023-09-18T07:21:45;17.90;99.90
20777;DHT22;10548;47.504;8.248;2023-09-18T07:24:12;18.00;99.90
20777;DHT22;10548;47.504;8.248;2023-09-18T07:26:45;17.90;99.90
20777;DHT22;10548;47.504;8.248;2023-09-18T07:29:14;17.90;99.90
20777;DHT22;10548;47.504;8.248;2023-09-18T07:31:43;17.90;99.90
20777;DHT22;10548;47.504;8.248;2023-09-18T07:34:10;17.90;99.90
20777;DHT22;10548;47.504;8.248;2023-09-18T07:36:40;17.90;99.90
20777;DHT22;10548;47.504;8.248;2023-09-18T07:39:07;17.90;99.90
20777;DHT22;10548;47.504;8.248;2023-09-18T07:41:34;18.00;99.90
20777;DHT22;10548;47.504;8.248;2023-09-18T07:44:02;18.00;99.90
20777;DHT22;10548;47.504;8.248;2023-09-18T07:46:29;18.10;99.90
20777;DHT22;10548;47.504;8.248;2023-09-18T07:48:56;18.10;99.90
20777;DHT22;10548;47.504;8.248;2023-09-18T07:51:23;18.00;99.90
20777;DHT22;10548;47.504;8.248;2023-09-18T07:53:50;18.00;99.90
20777;DHT22;10548;47.504;8.248;2023-09-18T07:56:17;18.00;99.90
20777;DHT22;10548;47.504;8.248;2023-09-18T07:58:46;18.10;99.90
20777;DHT22;10548;47.504;8.248;2023-09-18T08:01:14;18.10;99.90
20777;DHT22;10548;47.504;8.248;2023-09-18T08:03:43;18.20;99.90
20777;DHT22;10548;47.504;8.248;2023-09-18T08:06:10;18.20;99.90
20777;DHT22;10548;47.504;8.248;2023-09-18T08:08:38;18.20;99.90
20777;DHT22;10548;47.504;8.248;2023-09-18T08:11:07;18.20;99.90
20777;DHT22;10548;47.504;8.248;2023-09-18T08:13:37;18.20;99.90
20777;DHT22;10548;47.504;8.248;2023-09-18T08:16:06;18.30;99.90
20777;DHT22;10548;47.504;8.248;2023-09-18T08:18:34;18.30;99.90
20777;DHT22;10548;47.504;8.248;2023-09-18T08:21:02;18.30;99.90
20777;DHT22;10548;47.504;8.248;2023-09-18T08:23:29;18.50;99.90
20777;DHT22;10548;47.504;8.248;2023-09-18T08:25:57;18.50;99.90
20777;DHT22;10548;47.504;8.248;2023-09-18T08:28:24;18.40;99.90
20777;DHT22;10548;47.504;8.248;2023-09-18T08:30:51;18.30;99.90
20777;DHT22;10548;47.504;8.248;2023-09-18T08:33:20;18.30;99.90
20777;DHT22;10548;47.504;8.248;2023-09-18T08:35:47;18.20;99.90
20777;DHT22;10548;47.504;8.248;2023-09-18T08:38:16;18.20;99.90
20777;DHT22;10548;47.504;8.248;2023-09-18T08:40:44;18.20;99.90
20777;DHT22;10548;47.504;8.248;2023-09-18T08:43:14;18.20;99.90
20777;DHT22;10548;47.504;8.248;2023-09-18T08:45:55;18.20;99.90
20777;DHT22;10548;47.504;8.248;2023-09-18T08:48:29;18.30;99.90
20777;DHT22;10548;47.504;8.248;2023-09-18T08:51:14;18.30;99.90
20777;DHT22;10548;47.504;8.248;2023-09-18T08:53:43;18.30;99.90
20777;DHT22;10548;47.504;8.248;2023-09-18T08:56:10;18.20;99.90
20777;DHT22;10548;47.504;8.248;2023-09-18T08:58:40;18.20;99.90
20777;DHT22;10548;47.504;8.248;2023-09-18T09:01:10;18.20;99.90
20777;DHT22;10548;47.504;8.248;2023-09-18T09:03:42;18.40;99.90
20777;DHT22;10548;47.504;8.248;2023-09-18T09:06:10;18.40;99.90
20777;DHT22;10548;47.504;8.248;2023-09-18T09:08:37;18.40;99.90
20777;DHT22;10548;47.504;8.248;2023-09-18T09:11:04;18.30;99.90
20777;DHT22;10548;47.504;8.248;2023-09-18T09:13:32;18.40;99.90
20777;DHT22;10548;47.504;8.248;2023-09-18T09:16:12;18.40;99.90
20777;DHT22;10548;47.504;8.248;2023-09-18T09:18:50;18.30;99.90
20777;DHT22;10548;47.504;8.248;2023-09-18T09:21:19;18.20;99.90
20777;DHT22;10548;47.504;8.248;2023-09-18T09:23:51;18.10;99.90
20777;DHT22;10548;47.504;8.248;2023-09-18T09:26:22;18.10;99.90
20777;DHT22;10548;47.504;8.248;2023-09-18T09:28:50;18.00;99.90
20777;DHT22;10548;47.504;8.248;2023-09-18T09:31:29;18.00;99.90
20777;DHT22;10548;47.504;8.248;2023-09-18T09:33:57;18.00;99.90
20777;DHT22;10548;47.504;8.248;2023-09-18T09:36:26;18.00;99.90
20777;DHT22;10548;47.504;8.248;2023-09-18T09:38:57;18.00;99.90
20777;DHT22;10548;47.504;8.248;2023-09-18T09:41:26;18.00;99.90
20777;DHT22;10548;47.504;8.248;2023-09-18T09:43:55;17.90;99.90
20777;DHT22;10548;47.504;8.248;2023-09-18T09:46:23;18.00;99.90
20777;DHT22;10548;47.504;8.248;2023-09-18T09:49:04;18.00;99.90
20777;DHT22;10548;47.504;8.248;2023-09-18T09:51:32;17.90;99.90
20777;DHT22;10548;47.504;8.248;2023-09-18T09:54:00;17.90;99.90
20777;DHT22;10548;47.504;8.248;2023-09-18T09:56:48;17.90;99.90
20777;DHT22;10548;47.504;8.248;2023-09-18T09:59:18;17.80;99.90
20777;DHT22;10548;47.504;8.248;2023-09-18T10:01:47;17.80;99.90
20777;DHT22;10548;47.504;8.248;2023-09-18T10:04:18;17.90;99.90
20777;DHT22;10548;47.504;8.248;2023-09-18T10:07:06;17.80;99.90
20777;DHT22;10548;47.504;8.248;2023-09-18T10:09:41;17.90;99.90
20777;DHT22;10548;47.504;8.248;2023-09-18T10:12:12;17.90;99.90
20777;DHT22;10548;47.504;8.248;2023-09-18T10:14:43;17.90;99.90
20777;DHT22;10548;47.504;8.248;2023-09-18T10:17:27;17.90;99.90
20777;DHT22;10548;47.504;8.248;2023-09-18T10:20:06;17.80;99.90
20777;DHT22;10548;47.504;8.248;2023-09-18T10:22:40;17.80;99.90
20777;DHT22;10548;47.504;8.248;2023-09-18T10:25:30;17.90;99.90
20777;DHT22;10548;47.504;8.248;2023-09-18T10:27:59;17.80;99.90
20777;DHT22;10548;47.504;8.248;2023-09-18T10:30:29;17.70;99.90
20777;DHT22;10548;47.504;8.248;2023-09-18T10:32:59;17.80;99.90
20777;DHT22;10548;47.504;8.248;2023-09-18T10:35:28;17.80;99.90
20777;DHT22;10548;47.504;8.248;2023-09-18T10:37:57;17.90;99.90
20777;DHT22;10548;47.504;8.248;2023-09-18T10:40:25;18.00;99.90
20777;DHT22;10548;47.504;8.248;2023-09-18T10:42:57;18.00;99.90
20777;DHT22;10548;47.504;8.248;2023-09-18T10:45:25;18.00;99.90
20777;DHT22;10548;47.504;8.248;2023-09-18T10:47:53;18.00;99.90
20777;DHT22;10548;47.504;8.248;2023-09-18T10:50:24;18.20;99.90
20777;DHT22;10548;47.504;8.248;2023-09-18T10:52:59;18.10;99.90
20777;DHT22;10548;47.504;8.248;2023-09-18T10:55:27;18.20;99.90
20777;DHT22;10548;47.504;8.248;2023-09-18T10:57:55;18.10;99.90
20777;DHT22;10548;47.504;8.248;2023-09-18T11:00:28;18.30;99.90
20777;DHT22;10548;47.504;8.248;2023-09-18T11:03:15;18.40;99.90
20777;DHT22;10548;47.504;8.248;2023-09-18T11:06:04;18.40;99.90
20777;DHT22;10548;47.504;8.248;2023-09-18T11:08:46;18.50;99.90
20777;DHT22;10548;47.504;8.248;2023-09-18T11:11:13;18.50;99.90
20777;DHT22;10548;47.504;8.248;2023-09-18T11:13:48;18.50;99.90
20777;DHT22;10548;47.504;8.248;2023-09-18T11:19:18;18.50;99.90
20777;DHT22;10548;47.504;8.248;2023-09-18T11:22:06;18.50;99.90
20777;DHT22;10548;47.504;8.248;2023-09-18T11:24:34;18.50;99.90
20777;DHT22;10548;47.504;8.248;2023-09-18T11:27:02;18.50;99.90
20777;DHT22;10548;47.504;8.248;2023-09-18T11:29:36;18.60;99.90
20777;DHT22;10548;47.504;8.248;2023-09-18T11:32:04;18.60;99.90
20777;DHT22;10548;47.504;8.248;2023-09-18T11:34:32;18.50;99.90
20777;DHT22;10548;47.504;8.248;2023-09-18T11:37:19;18.60;99.90
20777;DHT22;10548;47.504;8.248;2023-09-18T11:39:46;18.80;99.90
20777;DHT22;10548;47.504;8.248;2023-09-18T11:42:18;19.10;99.90
20777;DHT22;10548;47.504;8.248;2023-09-18T11:44:47;19.20;99.90
20777;DHT22;10548;47.504;8.248;2023-09-18T11:47:17;19.00;99.90
20777;DHT22;10548;47.504;8.248;2023-09-18T11:49:57;18.90;99.90
20777;DHT22;10548;47.504;8.248;2023-09-18T11:52:30;18.90;99.90
20777;DHT22;10548;47.504;8.248;2023-09-18T11:55:01;18.90;99.90
20777;DHT22;10548;47.504;8.248;2023-09-18T11:57:35;18.90;99.90
20777;DHT22;10548;47.504;8.248;2023-09-18T12:00:03;19.00;99.90
20777;DHT22;10548;47.504;8.248;2023-09-18T12:02:39;19.10;99.90
20777;DHT22;10548;47.504;8.248;2023-09-18T12:05:18;19.10;99.90
20777;DHT22;10548;47.504;8.248;2023-09-18T12:07:46;19.20;99.90
20777;DHT22;10548;47.504;8.248;2023-09-18T12:10:18;19.20;99.90
20777;DHT22;10548;47.504;8.248;2023-09-18T12:12:45;19.20;99.90
20777;DHT22;10548;47.504;8.248;2023-09-18T12:15:13;19.30;99.90
20777;DHT22;10548;47.504;8.248;2023-09-18T12:17:42;19.30;99.90
20777;DHT22;10548;47.504;8.248;2023-09-18T12:20:16;19.40;99.90
20777;DHT22;10548;47.504;8.248;2023-09-18T12:22:48;19.40;99.90
20777;DHT22;10548;47.504;8.248;2023-09-18T12:25:16;19.50;99.90
20777;DHT22;10548;47.504;8.248;2023-09-18T12:27:45;19.60;99.90
20777;DHT22;10548;47.504;8.248;2023-09-18T12:30:14;19.70;99.90
20777;DHT22;10548;47.504;8.248;2023-09-18T12:32:47;19.60;99.90
20777;DHT22;10548;47.504;8.248;2023-09-18T12:35:16;19.70;99.90
20777;DHT22;10548;47.504;8.248;2023-09-18T12:37:45;19.90;99.90
20777;DHT22;10548;47.504;8.248;2023-09-18T12:40:29;19.90;99.90
20777;DHT22;10548;47.504;8.248;2023-09-18T12:43:00;20.10;99.90
20777;DHT22;10548;47.504;8.248;2023-09-18T12:45:28;20.50;99.90
20777;DHT22;10548;47.504;8.248;2023-09-18T12:47:57;20.30;99.90
20777;DHT22;10548;47.504;8.248;2023-09-18T12:50:26;20.20;99.90
20777;DHT22;10548;47.504;8.248;2023-09-18T12:52:53;20.00;99.90
20777;DHT22;10548;47.504;8.248;2023-09-18T12:55:24;20.40;99.90
20777;DHT22;10548;47.504;8.248;2023-09-18T12:57:53;20.10;99.90
20777;DHT22;10548;47.504;8.248;2023-09-18T13:00:21;20.60;99.90
20777;DHT22;10548;47.504;8.248;2023-09-18T13:02:54;20.60;99.90
20777;DHT22;10548;47.504;8.248;2023-09-18T13:05:24;20.50;99.90
20777;DHT22;10548;47.504;8.248;2023-09-18T13:08:03;20.40;99.90
20777;DHT22;10548;47.504;8.248;2023-09-18T13:10:44;20.50;99.90
20777;DHT22;10548;47.504;8.248;2023-09-18T13:13:21;20.20;99.90
20777;DHT22;10548;47.504;8.248;2023-09-18T13:15:49;20.10;99.90
20777;DHT22;10548;47.504;8.248;2023-09-18T13:18:22;20.30;99.90
20777;DHT22;10548;47.504;8.248;2023-09-18T13:20:51;20.30;99.90
20777;DHT22;10548;47.504;8.248;2023-09-18T13:23:19;20.10;99.90
20777;DHT22;10548;47.504;8.248;2023-09-18T13:25:48;20.20;99.90
20777;DHT22;10548;47.504;8.248;2023-09-18T13:28:16;19.90;99.90
20777;DHT22;10548;47.504;8.248;2023-09-18T13:30:47;19.90;99.90
20777;DHT22;10548;47.504;8.248;2023-09-18T13:33:16;19.90;99.90
20777;DHT22;10548;47.504;8.248;2023-09-18T13:35:44;19.90;99.90
20777;DHT22;10548;47.504;8.248;2023-09-18T13:38:12;19.90;99.90
20777;DHT22;10548;47.504;8.248;2023-09-18T13:40:41;19.90;99.90
20777;DHT22;10548;47.504;8.248;2023-09-18T13:43:09;19.70;99.90
20777;DHT22;10548;47.504;8.248;2023-09-18T13:45:37;19.70;99.90
20777;DHT22;10548;47.504;8.248;2023-09-18T13:48:05;19.60;99.90
20777;DHT22;10548;47.504;8.248;2023-09-18T13:50:34;19.60;99.90
20777;DHT22;10548;47.504;8.248;2023-09-18T13:53:01;19.60;99.90
20777;DHT22;10548;47.504;8.248;2023-09-18T13:55:31;19.60;99.90
20777;DHT22;10548;47.504;8.248;2023-09-18T13:57:59;19.70;99.90
20777;DHT22;10548;47.504;8.248;2023-09-18T14:00:26;19.80;99.90
20777;DHT22;10548;47.504;8.248;2023-09-18T14:02:53;19.90;99.90
20777;DHT22;10548;47.504;8.248;2023-09-18T14:05:21;20.10;99.90
20777;DHT22;10548;47.504;8.248;2023-09-18T14:07:49;20.00;99.90
20777;DHT22;10548;47.504;8.248;2023-09-18T14:10:17;20.00;99.90
20777;DHT22;10548;47.504;8.248;2023-09-18T14:12:48;20.00;99.90
20777;DHT22;10548;47.504;8.248;2023-09-18T14:15:15;19.90;99.90
20777;DHT22;10548;47.504;8.248;2023-09-18T14:17:42;19.80;99.90
20777;DHT22;10548;47.504;8.248;2023-09-18T14:20:09;19.70;99.90
20777;DHT22;10548;47.504;8.248;2023-09-18T14:22:37;19.70;99.90
20777;DHT22;10548;47.504;8.248;2023-09-18T14:25:07;19.70;99.90
20777;DHT22;10548;47.504;8.248;2023-09-18T14:27:35;19.70;99.90
20777;DHT22;10548;47.504;8.248;2023-09-18T14:30:03;19.60;99.90
20777;DHT22;10548;47.504;8.248;2023-09-18T14:32:34;19.60;99.90
20777;DHT22;10548;47.504;8.248;2023-09-18T14:35:04;19.70;99.90
20777;DHT22;10548;47.504;8.248;2023-09-18T14:37:36;19.70;99.90
20777;DHT22;10548;47.504;8.248;2023-09-18T14:40:04;19.70;99.90
20777;DHT22;10548;47.504;8.248;2023-09-18T14:42:31;19.60;99.90
20777;DHT22;10548;47.504;8.248;2023-09-18T14:45:00;19.50;99.90
20777;DHT22;10548;47.504;8.248;2023-09-18T14:47:29;19.60;99.90
20777;DHT22;10548;47.504;8.248;2023-09-18T14:49:56;19.60;99.90
20777;DHT22;10548;47.504;8.248;2023-09-18T14:52:25;19.50;99.90
20777;DHT22;10548;47.504;8.248;2023-09-18T14:54:53;19.40;99.90
20777;DHT22;10548;47.504;8.248;2023-09-18T14:57:20;19.50;99.90
20777;DHT22;10548;47.504;8.248;2023-09-18T14:59:47;19.60;99.90
20777;DHT22;10548;47.504;8.248;2023-09-18T15:02:16;19.50;99.90
20777;DHT22;10548;47.504;8.248;2023-09-18T15:04:45;19.40;99.90
20777;DHT22;10548;47.504;8.248;2023-09-18T15:07:12;19.30;99.90
20777;DHT22;10548;47.504;8.248;2023-09-18T15:09:40;19.40;99.90
20777;DHT22;10548;47.504;8.248;2023-09-18T15:12:08;19.40;99.90
20777;DHT22;10548;47.504;8.248;2023-09-18T15:14:36;19.30;99.90
20777;DHT22;10548;47.504;8.248;2023-09-18T15:17:03;19.40;99.90
20777;DHT22;10548;47.504;8.248;2023-09-18T15:19:31;19.40;99.90
20777;DHT22;10548;47.504;8.248;2023-09-18T15:21:58;19.30;99.90
20777;DHT22;10548;47.504;8.248;2023-09-18T15:24:26;19.30;99.90
20777;DHT22;10548;47.504;8.248;2023-09-18T15:26:53;19.40;99.90
20777;DHT22;10548;47.504;8.248;2023-09-18T15:29:20;19.20;99.90
20777;DHT22;10548;47.504;8.248;2023-09-18T15:31:48;19.20;99.90
20777;DHT22;10548;47.504;8.248;2023-09-18T15:34:15;19.30;99.90
20777;DHT22;10548;47.504;8.248;2023-09-18T15:36:44;19.30;99.90
20777;DHT22;10548;47.504;8.248;2023-09-18T15:39:11;19.30;99.90
20777;DHT22;10548;47.504;8.248;2023-09-18T15:41:40;19.30;99.90
20777;DHT22;10548;47.504;8.248;2023-09-18T15:44:07;19.20;99.90
20777;DHT22;10548;47.504;8.248;2023-09-18T15:46:37;19.20;99.90
20777;DHT22;10548;47.504;8.248;2023-09-18T15:49:04;19.20;99.90
20777;DHT22;10548;47.504;8.248;2023-09-18T15:51:31;19.20;99.90
20777;DHT22;10548;47.504;8.248;2023-09-18T15:53:59;19.10;99.90
20777;DHT22;10548;47.504;8.248;2023-09-18T15:56:26;19.10;99.90
20777;DHT22;10548;47.504;8.248;2023-09-18T15:58:53;19.10;99.90